Time;durP1;ratioP1;P1;durP2;ratioP2;P2;SDS_P1;SDS_P2;PMS_P1;PMS_P2;Temp;Humidity;BMP_temperature;BMP_pressure;BME280_temperature;BME280_humidity;BME280_pressure;Samples;Min_cycle;Max_cycle;Signal;HPM_P1;HPM_P2
2022/01/16 00:01:03;;;;;;;16.10;11.50;;;1.80;99.90;;;;;;5059970;28;20498;-61
2022/01/16 00:06:17;;;;;;;17.80;11.53;;;1.80;99.90;;;;;;5079128;28;20444;-60
2022/01/16 00:08:46;;;;;;;14.07;9.50;;;1.90;99.90;;;;;;5066595;28;20466;-60
2022/01/16 00:11:14;;;;;;;11.87;8.70;;;1.90;99.90;;;;;;5057397;28;20454;-61
2022/01/16 00:13:41;;;;;;;11.60;9.10;;;1.90;99.90;;;;;;5058479;28;21003;-61
2022/01/16 00:16:12;;;;;;;21.30;13.00;;;1.80;99.90;;;;;;5057806;28;20454;-59
2022/01/16 00:18:49;;;;;;;18.73;12.53;;;1.80;99.90;;;;;;5058515;28;20458;-60
2022/01/16 00:21:20;;;;;;;17.10;11.60;;;1.70;99.90;;;;;;5056619;28;20451;-59
2022/01/16 00:23:49;;;;;;;16.93;11.57;;;1.70;99.90;;;;;;5063135;28;20461;-60
2022/01/16 00:26:19;;;;;;;14.10;11.20;;;1.80;99.90;;;;;;5049404;28;20801;-60
2022/01/16 00:28:46;;;;;;;15.23;10.37;;;1.80;99.90;;;;;;5072951;28;20489;-59
2022/01/16 00:31:18;;;;;;;15.03;11.07;;;1.70;99.90;;;;;;5078518;28;20472;-60
2022/01/16 00:33:45;;;;;;;14.87;9.93;;;1.80;99.90;;;;;;5075622;28;20440;-60
2022/01/16 00:36:17;;;;;;;14.80;10.53;;;1.80;99.90;;;;;;5079068;28;20457;-59
2022/01/16 00:38:47;;;;;;;13.27;9.60;;;1.80;99.90;;;;;;5078746;28;20507;-61
2022/01/16 00:41:18;;;;;;;14.33;10.50;;;1.80;99.90;;;;;;5077575;28;20535;-61
2022/01/16 00:43:46;;;;;;;12.20;9.10;;;1.80;99.90;;;;;;5090015;28;20502;-61
2022/01/16 00:46:19;;;;;;;15.70;11.00;;;1.80;99.90;;;;;;5077259;28;20465;-61
2022/01/16 00:48:46;;;;;;;13.77;9.50;;;1.70;99.90;;;;;;5077608;28;20443;-61
2022/01/16 00:51:16;;;;;;;16.03;10.40;;;1.70;99.90;;;;;;5088235;28;20545;-61
2022/01/16 00:53:43;;;;;;;17.90;10.40;;;1.70;99.90;;;;;;5065927;28;20428;-60
2022/01/16 00:56:12;;;;;;;15.70;10.93;;;1.70;99.90;;;;;;5080895;28;20988;-59
2022/01/16 00:58:40;;;;;;;16.00;11.10;;;1.60;99.90;;;;;;5081796;28;20484;-61
2022/01/16 01:01:07;;;;;;;16.63;11.17;;;1.60;99.90;;;;;;5093399;28;20461;-61
2022/01/16 01:03:34;;;;;;;16.50;10.97;;;1.60;99.90;;;;;;5092430;28;20518;-60
2022/01/16 01:06:01;;;;;;;15.20;10.27;;;1.60;99.90;;;;;;5098269;28;20935;-61
2022/01/16 01:08:30;;;;;;;17.00;11.70;;;1.60;99.90;;;;;;5094407;28;20473;-60
2022/01/16 01:10:58;;;;;;;19.00;11.60;;;1.60;99.90;;;;;;5089329;28;20526;-60
2022/01/16 01:13:33;;;;;;;18.50;11.47;;;1.60;99.90;;;;;;5098753;28;20467;-59
2022/01/16 01:16:03;;;;;;;16.23;10.87;;;1.60;99.90;;;;;;5092384;28;20478;-61
2022/01/16 01:18:33;;;;;;;15.70;10.23;;;1.60;99.90;;;;;;5095295;28;20471;-58
2022/01/16 01:21:02;;;;;;;17.83;11.80;;;1.60;99.90;;;;;;5084003;28;20464;-61
2022/01/16 01:23:29;;;;;;;16.03;10.17;;;1.60;99.90;;;;;;5079097;28;20545;-61
2022/01/16 01:25:56;;;;;;;18.57;12.53;;;1.60;99.90;;;;;;5077985;28;20469;-61
2022/01/16 01:28:26;;;;;;;19.00;10.70;;;1.60;99.90;;;;;;5093664;28;20557;-61
2022/01/16 01:30:55;;;;;;;18.50;12.87;;;1.60;99.90;;;;;;5092420;28;20487;-61
2022/01/16 01:33:25;;;;;;;17.60;11.53;;;1.60;99.90;;;;;;5086563;28;20904;-61
2022/01/16 01:35:52;;;;;;;16.70;11.93;;;1.70;99.90;;;;;;5090765;28;20556;-61
2022/01/16 01:38:20;;;;;;;18.87;11.80;;;1.70;99.90;;;;;;5089172;28;20897;-61
2022/01/16 01:40:49;;;;;;;18.50;11.80;;;1.60;99.90;;;;;;5096890;28;20439;-61
2022/01/16 01:51:36;;;;;;;19.57;11.20;;;1.70;99.90;;;;;;5077805;28;20450;-61
2022/01/16 01:54:06;;;;;;;15.90;12.13;;;1.70;99.90;;;;;;5078339;28;20472;-61
2022/01/16 01:56:33;;;;;;;16.60;11.37;;;1.70;99.90;;;;;;5058080;28;20785;-61
2022/01/16 01:59:02;;;;;;;23.73;14.03;;;1.80;99.90;;;;;;5072035;28;20469;-61
2022/01/16 02:01:31;;;;;;;20.43;13.47;;;1.70;99.90;;;;;;5078045;28;20816;-61
2022/01/16 02:03:59;;;;;;;22.07;13.60;;;1.70;99.90;;;;;;5078272;28;20832;-61
2022/01/16 02:06:28;;;;;;;22.80;13.27;;;1.80;99.90;;;;;;5084442;28;20894;-61
2022/01/16 02:08:59;;;;;;;20.43;12.90;;;1.80;99.90;;;;;;5077045;28;20497;-61
2022/01/16 02:11:29;;;;;;;20.70;13.40;;;1.90;99.90;;;;;;5077429;28;20473;-61
2022/01/16 02:14:02;;;;;;;19.10;12.83;;;1.80;99.90;;;;;;5077777;28;20841;-61
2022/01/16 02:30:59;;;;;;;23.00;14.37;;;1.70;99.90;;;;;;5024564;28;20719;-61
2022/01/16 02:36:21;;;;;;;24.50;14.57;;;1.70;99.90;;;;;;5060299;28;20529;-61
2022/01/16 02:38:49;;;;;;;27.93;16.43;;;1.70;99.90;;;;;;5077601;28;20461;-61
2022/01/16 02:41:16;;;;;;;26.40;16.87;;;1.70;99.90;;;;;;5060752;28;20939;-61
2022/01/16 02:43:48;;;;;;;31.60;17.53;;;1.70;99.90;;;;;;5056805;28;20520;-61
2022/01/16 02:48:59;;;;;;;25.80;16.33;;;1.80;99.90;;;;;;5056962;28;20415;-61
2022/01/16 02:51:28;;;;;;;26.07;16.10;;;1.80;99.90;;;;;;5058554;28;20498;-61
2022/01/16 02:53:57;;;;;;;31.70;18.23;;;1.80;99.90;;;;;;5056823;28;20922;-61
2022/01/16 02:56:24;;;;;;;31.10;19.73;;;1.80;99.90;;;;;;5056487;28;20459;-61
2022/01/16 02:58:52;;;;;;;32.13;19.13;;;1.80;99.90;;;;;;5064477;28;20432;-61
2022/01/16 03:01:20;;;;;;;34.77;20.63;;;1.80;99.90;;;;;;5076301;28;20910;-61
2022/01/16 03:03:47;;;;;;;33.53;20.93;;;1.90;99.90;;;;;;5076408;28;20524;-61
2022/01/16 03:06:14;;;;;;;36.83;20.40;;;1.90;99.90;;;;;;5073221;28;20447;-61
2022/01/16 03:08:42;;;;;;;39.30;21.27;;;1.90;99.90;;;;;;5067463;28;20457;-60
2022/01/16 03:11:23;;;;;;;38.73;23.63;;;1.90;99.90;;;;;;5077103;28;20465;-60
2022/01/16 03:13:50;;;;;;;40.80;22.80;;;2.00;99.90;;;;;;5077296;28;20584;-61
2022/01/16 03:16:18;;;;;;;40.80;23.90;;;2.00;99.90;;;;;;5062038;28;20487;-61
2022/01/16 03:24:15;;;;;;;39.10;23.87;;;2.00;99.90;;;;;;5069924;28;20627;-61
2022/01/16 03:26:44;;;;;;;41.60;26.33;;;2.00;99.90;;;;;;5067764;28;20466;-61
2022/01/16 03:29:14;;;;;;;44.33;25.50;;;2.00;99.90;;;;;;5081256;28;20777;-61
2022/01/16 03:31:41;;;;;;;42.07;24.90;;;2.00;99.90;;;;;;5080934;28;20890;-61
2022/01/16 03:34:08;;;;;;;37.27;23.30;;;2.00;99.90;;;;;;5088121;28;20518;-61
2022/01/16 03:36:35;;;;;;;38.67;22.50;;;2.00;99.90;;;;;;5087026;28;20911;-61
2022/01/16 03:39:02;;;;;;;38.20;22.83;;;2.10;99.90;;;;;;5089884;28;20462;-61
2022/01/16 03:41:30;;;;;;;42.47;23.33;;;2.10;99.90;;;;;;5080586;28;20460;-61
2022/01/16 03:44:01;;;;;;;36.00;23.40;;;2.00;99.90;;;;;;5080070;28;20467;-61
2022/01/16 03:46:34;;;;;;;41.10;24.53;;;2.00;99.90;;;;;;5079989;28;20450;-61
2022/01/16 03:49:12;;;;;;;43.17;23.03;;;2.00;99.90;;;;;;5080833;28;20450;-61
2022/01/16 03:51:40;;;;;;;40.40;23.43;;;2.00;99.90;;;;;;5060835;28;20505;-61
2022/01/16 03:54:10;;;;;;;43.97;23.67;;;2.10;99.90;;;;;;5060954;28;20429;-61
2022/01/16 03:56:38;;;;;;;38.40;22.63;;;2.00;99.90;;;;;;5070097;28;20472;-61
2022/01/16 03:59:07;;;;;;;40.40;24.13;;;2.10;99.90;;;;;;5080076;28;20749;-61
2022/01/16 04:01:34;;;;;;;43.50;25.70;;;2.10;99.90;;;;;;5089528;28;20460;-61
2022/01/16 04:04:01;;;;;;;49.40;26.27;;;2.10;99.90;;;;;;5100329;28;20849;-61
2022/01/16 04:06:28;;;;;;;50.20;25.30;;;2.10;99.90;;;;;;5088195;28;20884;-61
2022/01/16 04:08:56;;;;;;;50.83;27.70;;;2.10;99.90;;;;;;5079673;28;20447;-61
2022/01/16 04:11:25;;;;;;;49.07;28.47;;;2.10;99.90;;;;;;5079840;28;20902;-61
2022/01/16 04:13:55;;;;;;;44.97;24.67;;;2.10;99.90;;;;;;5080365;28;20537;-61
2022/01/16 04:16:25;;;;;;;46.43;27.27;;;2.10;99.90;;;;;;5086630;28;20492;-61
2022/01/16 04:18:52;;;;;;;48.77;29.17;;;2.10;99.90;;;;;;5092499;28;20443;-61
2022/01/16 04:21:20;;;;;;;56.87;29.80;;;2.00;99.90;;;;;;5084368;28;20468;-61
2022/01/16 04:23:47;;;;;;;53.27;28.50;;;2.10;99.90;;;;;;5080166;28;20492;-61
2022/01/16 04:26:18;;;;;;;53.10;29.00;;;2.00;99.90;;;;;;5093907;28;20464;-61
2022/01/16 04:28:46;;;;;;;52.30;29.60;;;2.00;99.90;;;;;;5096818;28;20484;-61
2022/01/16 04:31:15;;;;;;;57.40;30.87;;;2.00;99.90;;;;;;5079943;28;20518;-61
2022/01/16 04:33:44;;;;;;;57.23;30.40;;;2.00;99.90;;;;;;5085906;28;20867;-61
2022/01/16 04:36:12;;;;;;;58.43;30.77;;;2.00;99.90;;;;;;5089633;28;20464;-61
2022/01/16 04:38:45;;;;;;;52.93;30.30;;;2.00;99.90;;;;;;5079467;28;20476;-61
2022/01/16 04:43:57;;;;;;;62.83;33.87;;;2.00;99.90;;;;;;5078806;28;20538;-61
2022/01/16 04:46:28;;;;;;;65.43;32.07;;;1.90;99.90;;;;;;5079483;28;20779;-61
2022/01/16 04:48:58;;;;;;;59.83;30.97;;;2.00;99.90;;;;;;5079264;28;20436;-61
2022/01/16 04:51:26;;;;;;;66.07;35.27;;;2.00;99.90;;;;;;5078558;28;20465;-61
2022/01/16 04:53:54;;;;;;;58.97;33.60;;;2.00;99.90;;;;;;5088784;28;20452;-61
2022/01/16 04:56:21;;;;;;;60.40;34.80;;;2.00;99.90;;;;;;5098787;28;20464;-61
2022/01/16 04:58:48;;;;;;;53.80;34.37;;;2.00;99.90;;;;;;5099633;28;20803;-61
2022/01/16 05:01:16;;;;;;;57.87;34.57;;;2.10;99.90;;;;;;5088539;28;20509;-61
2022/01/16 05:03:43;;;;;;;61.30;35.20;;;2.10;99.90;;;;;;5079348;28;20827;-61
2022/01/16 05:06:12;;;;;;;57.53;34.67;;;2.10;99.90;;;;;;5091718;28;20460;-61
2022/01/16 05:08:40;;;;;;;55.47;32.77;;;2.10;99.90;;;;;;5098790;28;20727;-61
2022/01/16 05:11:08;;;;;;;50.50;32.67;;;2.10;99.90;;;;;;5093465;28;20432;-61
2022/01/16 05:16:38;;;;;;;55.77;33.93;;;2.10;99.90;;;;;;5079343;28;20998;-61
2022/01/16 05:19:10;;;;;;;63.07;34.53;;;2.10;99.90;;;;;;5078560;28;20488;-61
2022/01/16 05:21:42;;;;;;;65.43;35.27;;;2.20;99.90;;;;;;5091531;28;20495;-61
2022/01/16 05:24:11;;;;;;;64.37;35.13;;;2.20;99.90;;;;;;5078554;28;20552;-61
2022/01/16 05:26:39;;;;;;;59.20;35.10;;;2.30;99.90;;;;;;5088526;28;20464;-61
2022/01/16 05:29:06;;;;;;;59.70;32.93;;;2.20;99.90;;;;;;5098432;28;20797;-61
2022/01/16 05:31:33;;;;;;;57.60;34.80;;;2.20;99.90;;;;;;5097922;28;20506;-61
2022/01/16 05:34:00;;;;;;;59.93;37.20;;;2.30;99.90;;;;;;5089216;28;20493;-61
2022/01/16 05:36:27;;;;;;;62.90;38.00;;;2.30;99.90;;;;;;5081073;28;20531;-61
2022/01/16 05:38:59;;;;;;;68.30;40.53;;;2.30;99.90;;;;;;5068366;28;20798;-61
2022/01/16 05:41:26;;;;;;;76.97;41.70;;;2.40;99.90;;;;;;5078026;28;20461;-60
2022/01/16 05:43:53;;;;;;;71.67;41.30;;;2.40;99.90;;;;;;5078651;28;20495;-61
2022/01/16 05:46:20;;;;;;;65.30;39.23;;;2.40;99.90;;;;;;5080179;28;20440;-61
2022/01/16 05:48:47;;;;;;;74.13;41.33;;;2.40;99.90;;;;;;5098424;28;20467;-61
2022/01/16 05:51:14;;;;;;;75.50;40.37;;;2.40;99.90;;;;;;5098411;28;20461;-61
2022/01/16 05:53:44;;;;;;;74.40;39.70;;;2.40;99.90;;;;;;5087217;28;20457;-61
2022/01/16 05:56:13;;;;;;;80.57;44.57;;;2.40;99.90;;;;;;5082451;28;20539;-61
2022/01/16 05:58:40;;;;;;;89.73;42.73;;;2.40;99.90;;;;;;5097718;28;20439;-61
2022/01/16 06:01:07;;;;;;;79.57;42.03;;;2.50;99.90;;;;;;5098094;28;20889;-61
2022/01/16 06:03:34;;;;;;;89.50;44.10;;;2.50;99.90;;;;;;5091988;28;20486;-61
2022/01/16 06:06:01;;;;;;;72.97;43.40;;;2.50;99.90;;;;;;5077947;28;20466;-61
2022/01/16 06:08:28;;;;;;;78.60;42.47;;;2.50;99.90;;;;;;5077120;28;20471;-61
2022/01/16 06:10:55;;;;;;;88.13;45.27;;;2.50;99.90;;;;;;5077023;28;20816;-61
2022/01/16 06:13:24;;;;;;;82.40;43.70;;;2.50;99.90;;;;;;5077056;28;20458;-61
2022/01/16 06:15:51;;;;;;;82.07;45.10;;;2.50;99.90;;;;;;5078965;28;20458;-61
2022/01/16 06:18:18;;;;;;;77.53;44.20;;;2.50;99.90;;;;;;5086755;28;20464;-61
2022/01/16 06:20:45;;;;;;;76.30;43.30;;;2.40;99.90;;;;;;5079318;28;20518;-61
2022/01/16 06:23:14;;;;;;;81.57;44.37;;;2.50;99.90;;;;;;5078025;28;20832;-61
2022/01/16 06:25:41;;;;;;;83.50;44.37;;;2.50;99.90;;;;;;5098465;28;20470;-61
2022/01/16 06:28:08;;;;;;;78.67;44.27;;;2.50;99.90;;;;;;5097507;28;20975;-61
2022/01/16 06:30:36;;;;;;;83.27;43.90;;;2.50;99.90;;;;;;5084862;28;20845;-61
2022/01/16 06:33:06;;;;;;;76.20;42.77;;;2.60;99.90;;;;;;5077225;28;20457;-61
2022/01/16 06:35:33;;;;;;;70.63;40.33;;;2.60;99.90;;;;;;5077455;28;20462;-61
2022/01/16 06:38:04;;;;;;;70.70;39.17;;;2.50;99.90;;;;;;5077569;28;20457;-60
2022/01/16 06:40:31;;;;;;;71.73;41.03;;;2.50;99.90;;;;;;5076963;28;20469;-61
2022/01/16 06:42:58;;;;;;;86.20;43.37;;;2.50;99.90;;;;;;5076723;28;20466;-61
2022/01/16 06:45:25;;;;;;;73.47;40.80;;;2.50;99.90;;;;;;5076657;28;20459;-61
2022/01/16 06:47:55;;;;;;;70.43;41.20;;;2.50;99.90;;;;;;5077779;28;20493;-61
2022/01/16 06:50:22;;;;;;;72.47;40.67;;;2.50;99.90;;;;;;5076611;28;20519;-61
2022/01/16 06:52:50;;;;;;;69.07;40.40;;;2.50;99.90;;;;;;5077702;28;20435;-61
2022/01/16 06:55:17;;;;;;;76.63;42.10;;;2.50;99.90;;;;;;5077030;28;20464;-61
2022/01/16 06:57:44;;;;;;;79.90;41.83;;;2.50;99.90;;;;;;5077381;28;20534;-61
2022/01/16 07:00:12;;;;;;;70.77;41.40;;;2.50;99.90;;;;;;5076556;28;20461;-61
2022/01/16 07:02:41;;;;;;;101.03;52.60;;;2.60;99.90;;;;;;5078658;28;20466;-61
2022/01/16 07:05:11;;;;;;;82.93;45.57;;;2.60;99.90;;;;;;5084801;28;20493;-61
2022/01/16 07:07:38;;;;;;;71.37;40.23;;;2.60;99.90;;;;;;5077217;28;20461;-61
2022/01/16 07:10:06;;;;;;;69.10;41.73;;;2.60;99.90;;;;;;5094763;28;20461;-61
2022/01/16 07:12:33;;;;;;;69.70;40.80;;;2.60;99.90;;;;;;5085797;28;20442;-61
2022/01/16 07:15:00;;;;;;;70.83;39.73;;;2.60;99.90;;;;;;5082203;28;20435;-61
2022/01/16 07:17:27;;;;;;;66.70;39.90;;;2.60;99.90;;;;;;5077291;28;20827;-61
2022/01/16 07:19:54;;;;;;;71.53;42.00;;;2.60;99.90;;;;;;5089647;28;20751;-61
2022/01/16 07:22:23;;;;;;;70.60;43.00;;;2.60;99.90;;;;;;5091470;28;20436;-61
2022/01/16 07:24:51;;;;;;;73.53;44.50;;;2.60;99.90;;;;;;5076204;28;21100;-61
2022/01/16 07:27:18;;;;;;;65.93;40.17;;;2.60;99.90;;;;;;5076683;28;20491;-61
2022/01/16 07:29:45;;;;;;;74.90;41.93;;;2.60;99.90;;;;;;5077157;28;20502;-61
2022/01/16 07:32:12;;;;;;;67.27;42.97;;;2.60;99.90;;;;;;5091522;28;20439;-61
2022/01/16 07:34:39;;;;;;;75.70;42.87;;;2.60;99.90;;;;;;5076608;28;20550;-61
2022/01/16 07:37:06;;;;;;;73.17;45.43;;;2.70;99.90;;;;;;5076265;28;20552;-61
2022/01/16 07:39:37;;;;;;;75.60;44.03;;;2.70;99.90;;;;;;5077129;28;20885;-61
2022/01/16 07:42:05;;;;;;;69.83;41.40;;;2.70;99.90;;;;;;5077138;28;20758;-61
2022/01/16 07:44:32;;;;;;;74.27;43.53;;;2.70;99.90;;;;;;5076531;28;20542;-59
2022/01/16 07:46:59;;;;;;;72.33;42.00;;;2.70;99.90;;;;;;5080429;28;20514;-61
2022/01/16 07:49:29;;;;;;;76.27;41.73;;;2.80;99.90;;;;;;5080120;28;20460;-61
2022/01/16 07:51:56;;;;;;;78.13;44.90;;;2.80;99.90;;;;;;5097282;28;20899;-61
2022/01/16 07:54:23;;;;;;;76.67;45.47;;;2.80;99.90;;;;;;5095274;28;20435;-61
2022/01/16 07:56:57;;;;;;;71.80;43.40;;;2.80;99.90;;;;;;5091669;28;20428;-61
2022/01/16 07:59:24;;;;;;;77.40;44.60;;;2.80;99.90;;;;;;5087654;28;20460;-61
2022/01/16 08:01:51;;;;;;;73.80;43.57;;;2.80;99.90;;;;;;5095073;28;20460;-61
2022/01/16 08:04:21;;;;;;;74.40;42.87;;;2.90;99.90;;;;;;5091037;28;20481;-61
2022/01/16 08:06:53;;;;;;;83.90;43.63;;;2.90;99.90;;;;;;5076478;28;20514;-61
2022/01/16 08:09:20;;;;;;;67.77;40.97;;;2.80;99.90;;;;;;5057176;28;20893;-61
2022/01/16 08:11:47;;;;;;;76.33;41.90;;;2.90;99.90;;;;;;5060354;28;20778;-61
2022/01/16 08:14:15;;;;;;;73.70;41.50;;;2.90;99.90;;;;;;5059649;28;20471;-61
2022/01/16 08:16:45;;;;;;;69.13;42.57;;;2.90;99.90;;;;;;5079384;28;20487;-61
2022/01/16 08:19:12;;;;;;;73.70;44.10;;;2.90;99.90;;;;;;5080735;28;20792;-60
2022/01/16 08:21:43;;;;;;;78.13;46.70;;;2.90;99.90;;;;;;5080150;28;20465;-61
2022/01/16 08:24:12;;;;;;;69.73;41.20;;;2.90;99.90;;;;;;5072147;28;20468;-61
2022/01/16 08:26:39;;;;;;;76.63;43.10;;;2.90;99.90;;;;;;5068988;28;20506;-61
2022/01/16 08:29:07;;;;;;;74.93;45.17;;;3.00;99.90;;;;;;5079195;28;20523;-61
2022/01/16 08:31:35;;;;;;;80.13;42.67;;;2.90;99.90;;;;;;5082427;28;20457;-61
2022/01/16 08:34:05;;;;;;;70.53;42.30;;;2.90;99.90;;;;;;5079637;28;20458;-61
2022/01/16 08:36:40;;;;;;;75.87;44.23;;;3.00;99.90;;;;;;5084370;28;20540;-61
2022/01/16 08:39:06;;;;;;;71.23;43.23;;;3.00;99.90;;;;;;5063310;28;20435;-61
2022/01/16 08:41:37;;;;;;;77.90;44.80;;;3.00;99.90;;;;;;5077929;28;20439;-61
2022/01/16 08:44:05;;;;;;;77.00;44.43;;;3.00;99.90;;;;;;5075135;28;20519;-61
2022/01/16 08:46:32;;;;;;;73.03;43.90;;;2.90;99.90;;;;;;5079292;28;20485;-61
2022/01/16 08:49:00;;;;;;;81.57;43.80;;;3.00;99.90;;;;;;5075615;28;20464;-61
2022/01/16 08:51:27;;;;;;;78.13;45.57;;;2.90;99.90;;;;;;5065521;28;20895;-61
2022/01/16 08:53:55;;;;;;;68.93;43.50;;;2.90;99.90;;;;;;5069548;28;20499;-61
2022/01/16 08:56:24;;;;;;;71.57;40.30;;;3.00;99.90;;;;;;5059066;28;20821;-61
2022/01/16 08:58:51;;;;;;;82.70;46.50;;;3.00;99.90;;;;;;5062911;28;20858;-61
2022/01/16 09:01:21;;;;;;;78.73;44.20;;;3.00;99.90;;;;;;5073946;28;20499;-61
2022/01/16 09:03:52;;;;;;;80.03;44.07;;;3.00;99.90;;;;;;5060123;28;20520;-61
2022/01/16 09:06:21;;;;;;;71.90;42.03;;;3.10;99.90;;;;;;5088566;28;20481;-61
2022/01/16 09:08:48;;;;;;;74.33;44.77;;;3.10;99.90;;;;;;5058798;28;20440;-61
2022/01/16 09:11:16;;;;;;;77.53;44.80;;;3.10;99.90;;;;;;5076079;28;20464;-61
2022/01/16 09:13:43;;;;;;;74.00;43.43;;;3.10;99.90;;;;;;5078198;28;20489;-61
2022/01/16 09:16:10;;;;;;;67.20;41.53;;;3.10;99.90;;;;;;5082892;28;20497;-61
2022/01/16 09:18:39;;;;;;;69.30;41.77;;;3.10;99.90;;;;;;5058856;28;20433;-61
2022/01/16 09:21:06;;;;;;;80.33;42.57;;;3.10;99.90;;;;;;5056980;28;20552;-61
2022/01/16 09:23:38;;;;;;;64.00;39.33;;;3.20;99.90;;;;;;5073234;28;20440;-61
2022/01/16 09:26:05;;;;;;;63.47;39.90;;;3.20;99.90;;;;;;5078083;28;20519;-61
2022/01/16 09:28:33;;;;;;;63.90;39.17;;;3.30;99.90;;;;;;5065214;28;20498;-61
2022/01/16 09:31:01;;;;;;;63.37;39.67;;;3.30;99.90;;;;;;5058527;28;20437;-61
2022/01/16 09:33:28;;;;;;;61.57;37.27;;;3.30;99.90;;;;;;5068480;28;20832;-61
2022/01/16 09:35:55;;;;;;;54.93;36.00;;;3.40;99.90;;;;;;5070797;28;20441;-61
2022/01/16 09:38:23;;;;;;;63.33;38.10;;;3.40;99.90;;;;;;5058335;28;20895;-61
2022/01/16 09:41:00;;;;;;;58.97;36.70;;;3.30;99.90;;;;;;5058100;28;20561;-61
2022/01/16 09:43:33;;;;;;;64.43;38.47;;;3.40;99.90;;;;;;5064273;28;20467;-61
2022/01/16 09:46:05;;;;;;;62.40;37.60;;;3.40;99.90;;;;;;5076753;28;20580;-61
2022/01/16 09:48:32;;;;;;;56.27;36.57;;;3.50;99.90;;;;;;5057903;28;20569;-61
2022/01/16 09:50:59;;;;;;;55.83;36.57;;;3.50;99.90;;;;;;5057874;28;20463;-60
2022/01/16 09:53:26;;;;;;;58.40;36.37;;;3.60;99.90;;;;;;5069266;28;20472;-60
2022/01/16 09:56:00;;;;;;;60.57;36.90;;;3.60;99.90;;;;;;5077137;28;20432;-61
2022/01/16 09:58:28;;;;;;;59.37;37.47;;;3.70;99.90;;;;;;5055861;28;20457;-61
2022/01/16 10:00:57;;;;;;;56.90;39.00;;;3.70;99.90;;;;;;5056412;28;20462;-60
2022/01/16 10:03:37;;;;;;;55.80;36.17;;;3.70;99.90;;;;;;5054283;28;20497;-61
2022/01/16 10:06:14;;;;;;;59.27;35.40;;;3.70;99.90;;;;;;5055619;28;20494;-61
2022/01/16 10:08:45;;;;;;;59.67;36.53;;;3.70;99.90;;;;;;5057111;28;20734;-61
2022/01/16 10:11:35;;;;;;;63.37;36.27;;;3.70;99.90;;;;;;5057970;28;20543;-60
2022/01/16 10:14:09;;;;;;;60.20;36.27;;;3.70;99.90;;;;;;5064842;28;20465;-61
2022/01/16 10:16:38;;;;;;;53.10;34.00;;;3.80;99.90;;;;;;5062384;28;20465;-61
2022/01/16 10:19:19;;;;;;;57.13;35.13;;;3.80;99.90;;;;;;5057500;28;20462;-61
2022/01/16 10:21:46;;;;;;;52.73;34.13;;;3.80;99.90;;;;;;5058210;28;20461;-60
2022/01/16 10:24:24;;;;;;;55.30;37.63;;;3.80;99.90;;;;;;5060967;28;20910;-61
2022/01/16 10:27:21;;;;;;;51.93;35.27;;;3.80;99.90;;;;;;5057684;28;20844;-61
2022/01/16 10:29:51;;;;;;;51.47;34.73;;;3.90;99.90;;;;;;5057838;28;20466;-61
2022/01/16 10:32:20;;;;;;;50.53;32.07;;;3.90;99.90;;;;;;5057008;28;20441;-61
2022/01/16 10:34:52;;;;;;;51.83;33.13;;;3.90;99.90;;;;;;5056793;28;20504;-60
2022/01/16 10:37:25;;;;;;;54.07;34.40;;;3.90;99.90;;;;;;5057296;28;20896;-61
2022/01/16 10:40:00;;;;;;;51.27;34.60;;;4.00;99.90;;;;;;5057990;28;20437;-60
2022/01/16 10:42:31;;;;;;;53.03;33.97;;;4.10;99.90;;;;;;5065630;28;20464;-60
2022/01/16 10:45:09;;;;;;;54.33;34.97;;;4.20;99.90;;;;;;5058900;28;20490;-61
2022/01/16 10:47:41;;;;;;;47.03;33.07;;;4.20;99.90;;;;;;5059820;28;20802;-61
2022/01/16 10:50:15;;;;;;;47.97;32.17;;;4.20;99.90;;;;;;5036627;28;20525;-61
2022/01/16 10:52:58;;;;;;;50.83;32.77;;;4.20;99.90;;;;;;5036845;28;20467;-60
2022/01/16 10:55:38;;;;;;;50.30;35.50;;;4.20;99.90;;;;;;5039574;28;20454;-61
2022/01/16 10:58:13;;;;;;;59.57;34.33;;;4.30;99.90;;;;;;5056794;28;20466;-61
2022/01/16 11:00:42;;;;;;;48.37;31.07;;;4.30;99.90;;;;;;5053856;28;20556;-60
2022/01/16 11:03:11;;;;;;;50.87;32.50;;;4.20;99.90;;;;;;5057631;28;20819;-60
2022/01/16 11:05:41;;;;;;;56.20;32.17;;;4.20;99.90;;;;;;5062174;28;20798;-59
2022/01/16 11:08:13;;;;;;;50.23;31.33;;;4.20;99.90;;;;;;5055652;28;20443;-60
2022/01/16 11:10:41;;;;;;;48.23;30.10;;;4.20;99.90;;;;;;5056197;28;20466;-60
2022/01/16 11:13:14;;;;;;;50.00;31.17;;;4.20;99.90;;;;;;5056569;28;20462;-60
2022/01/16 11:15:43;;;;;;;47.73;31.60;;;4.20;99.90;;;;;;5056728;28;20558;-60
2022/01/16 11:18:13;;;;;;;51.30;32.60;;;4.30;99.90;;;;;;5055811;28;20815;-60
2022/01/16 11:20:55;;;;;;;56.43;32.23;;;4.30;99.90;;;;;;5064053;28;20461;-60
2022/01/16 11:23:31;;;;;;;51.40;33.83;;;4.40;99.90;;;;;;5064364;28;20462;-60
2022/01/16 11:26:03;;;;;;;57.17;35.97;;;4.40;99.90;;;;;;5069088;28;20554;-60
2022/01/16 11:28:33;;;;;;;51.87;32.70;;;4.40;99.90;;;;;;5074031;28;20584;-60
2022/01/16 11:31:02;;;;;;;52.17;33.50;;;4.50;99.90;;;;;;5076798;28;20519;-60
2022/01/16 11:33:33;;;;;;;50.93;31.37;;;4.40;99.90;;;;;;5065285;28;20440;-61
2022/01/16 11:36:07;;;;;;;56.07;33.57;;;4.40;99.90;;;;;;5076819;28;20461;-60
2022/01/16 11:38:40;;;;;;;57.53;35.77;;;4.40;99.90;;;;;;5076037;28;20544;-60
2022/01/16 11:41:13;;;;;;;56.33;33.90;;;4.50;99.90;;;;;;5077021;28;20817;-61
2022/01/16 11:43:47;;;;;;;55.27;33.63;;;4.40;99.90;;;;;;5077009;28;20476;-60
2022/01/16 11:46:16;;;;;;;58.53;34.67;;;4.50;99.90;;;;;;5080321;28;20489;-60
2022/01/16 11:48:53;;;;;;;58.40;34.77;;;4.50;99.90;;;;;;5079536;28;20839;-61
2022/01/16 11:51:52;;;;;;;58.70;33.03;;;4.50;99.90;;;;;;5079724;28;20465;-60
2022/01/16 11:54:44;;;;;;;50.70;31.83;;;4.50;99.90;;;;;;5080091;28;20439;-60
2022/01/16 11:57:33;;;;;;;55.00;31.80;;;4.60;99.90;;;;;;5080444;28;20483;-60
2022/01/16 12:00:14;;;;;;;51.97;32.57;;;4.60;99.90;;;;;;5079827;28;20443;-61
2022/01/16 12:02:44;;;;;;;59.90;34.67;;;4.60;99.90;;;;;;5079996;28;20468;-59
2022/01/16 12:05:23;;;;;;;54.07;33.30;;;4.70;99.90;;;;;;5079601;28;20550;-60
2022/01/16 12:08:00;;;;;;;57.37;35.70;;;4.70;99.90;;;;;;5079631;28;20469;-61
2022/01/16 12:10:50;;;;;;;50.43;30.90;;;4.80;99.90;;;;;;5079186;28;20467;-60
2022/01/16 12:13:58;;;;;;;68.10;34.00;;;4.80;99.90;;;;;;5079682;28;20780;-60
2022/01/16 12:16:46;;;;;;;59.30;34.63;;;4.90;99.90;;;;;;5076448;28;20465;-60
2022/01/16 12:19:47;;;;;;;60.43;35.80;;;4.90;99.90;;;;;;5076223;28;20468;-60
2022/01/16 12:22:18;;;;;;;55.47;34.83;;;4.90;99.90;;;;;;5066415;28;20480;-60
2022/01/16 12:24:49;;;;;;;55.30;32.73;;;4.80;99.90;;;;;;5078241;28;20907;-60
2022/01/16 12:27:39;;;;;;;54.90;33.60;;;4.90;99.90;;;;;;5078665;28;20796;-60
2022/01/16 12:30:41;;;;;;;57.80;31.90;;;4.90;99.90;;;;;;5056613;28;20463;-59
2022/01/16 12:33:30;;;;;;;52.93;32.73;;;4.90;99.90;;;;;;5025203;28;20481;-61
2022/01/16 12:36:23;;;;;;;57.33;32.90;;;5.00;99.90;;;;;;5053983;28;20457;-60
2022/01/16 12:39:06;;;;;;;57.50;33.93;;;5.20;99.90;;;;;;5050435;28;20458;-60
2022/01/16 12:41:38;;;;;;;49.90;31.20;;;5.30;99.90;;;;;;5048126;28;20930;-60
2022/01/16 12:44:08;;;;;;;54.93;31.93;;;5.60;99.90;;;;;;5053865;28;20490;-60
2022/01/16 12:46:38;;;;;;;51.83;31.70;;;5.70;99.90;;;;;;5047289;28;20465;-60
2022/01/16 12:49:12;;;;;;;55.23;30.97;;;5.70;99.90;;;;;;5050670;28;20456;-59
2022/01/16 12:51:41;;;;;;;53.10;33.50;;;5.60;99.90;;;;;;5049435;28;20740;-59
2022/01/16 12:54:11;;;;;;;49.27;31.90;;;5.50;99.90;;;;;;5049241;28;20813;-60
2022/01/16 12:56:42;;;;;;;53.00;32.57;;;5.40;99.90;;;;;;5051519;28;20433;-59
2022/01/16 12:59:15;;;;;;;56.13;34.07;;;5.20;99.90;;;;;;5046784;28;20545;-60
2022/01/16 13:01:51;;;;;;;69.50;45.53;;;5.10;99.90;;;;;;5049006;28;20823;-60
2022/01/16 13:04:29;;;;;;;65.60;40.27;;;5.10;99.90;;;;;;5047391;28;20457;-60
2022/01/16 13:06:57;;;;;;;49.20;29.87;;;5.10;99.90;;;;;;5053275;28;20939;-60
2022/01/16 13:09:27;;;;;;;51.90;31.20;;;5.20;99.90;;;;;;5048466;28;20508;-58
2022/01/16 13:11:58;;;;;;;50.30;30.87;;;5.10;99.90;;;;;;5053356;28;20910;-60
2022/01/16 13:14:28;;;;;;;52.93;31.57;;;5.00;99.90;;;;;;5048480;28;20541;-60
2022/01/16 13:16:57;;;;;;;53.57;31.27;;;5.00;99.90;;;;;;5053247;28;20466;-60
2022/01/16 13:19:38;;;;;;;53.57;31.93;;;4.90;99.90;;;;;;5053099;28;20884;-60
2022/01/16 13:22:11;;;;;;;44.93;27.83;;;4.90;99.90;;;;;;5054634;28;21211;-60
2022/01/16 13:24:48;;;;;;;46.10;28.20;;;4.90;99.90;;;;;;5053353;28;20468;-59
2022/01/16 13:27:17;;;;;;;48.73;30.03;;;4.80;99.90;;;;;;5061023;28;20490;-60
2022/01/16 13:29:46;;;;;;;51.90;29.07;;;4.80;99.90;;;;;;5054626;28;20520;-60
2022/01/16 13:32:15;;;;;;;41.90;26.27;;;4.80;99.90;;;;;;5054627;28;20541;-60
2022/01/16 13:34:50;;;;;;;49.20;27.83;;;4.80;99.90;;;;;;5053909;28;20909;-60
2022/01/16 13:37:21;;;;;;;48.17;30.17;;;4.70;99.90;;;;;;5048120;28;20433;-60